createdAt,value
2018-02-21T00:01:41.845Z,18.20
2018-02-21T00:05:05.890Z,18.93
2018-02-21T00:08:29.215Z,20.23
2018-02-21T00:11:52.499Z,18.37
2018-02-21T00:15:16.586Z,18.83
2018-02-21T00:18:39.904Z,18.83
2018-02-21T00:22:03.217Z,20.50
2018-02-21T00:25:26.484Z,19.57
2018-02-21T00:28:49.818Z,20.60
2018-02-21T00:32:13.888Z,21.20
2018-02-21T00:35:37.153Z,22.00
2018-02-21T00:39:00.533Z,21.63
2018-02-21T00:42:23.868Z,21.77
2018-02-21T00:45:47.921Z,20.80
2018-02-21T00:49:11.219Z,21.23
2018-02-21T00:52:35.305Z,19.73
2018-02-21T00:55:59.432Z,22.53
2018-02-21T00:59:22.748Z,21.43
2018-02-21T01:02:45.997Z,22.17
2018-02-21T01:06:09.257Z,21.83
2018-02-21T01:09:32.593Z,21.97
2018-02-21T01:12:55.875Z,20.60
2018-02-21T01:16:20.010Z,21.17
2018-02-21T01:19:43.328Z,22.40
2018-02-21T01:23:06.600Z,21.83
2018-02-21T01:26:29.967Z,22.23
2018-02-21T01:29:53.233Z,22.17
2018-02-21T01:33:16.608Z,21.30
2018-02-21T01:36:39.887Z,20.90
2018-02-21T01:40:04.014Z,20.87
2018-02-21T01:43:27.286Z,20.13
2018-02-21T01:46:50.568Z,20.57
2018-02-21T01:50:14.622Z,19.73
2018-02-21T01:53:37.884Z,20.90
2018-02-21T01:57:01.162Z,22.57
2018-02-21T02:00:24.492Z,21.80
2018-02-21T02:03:47.854Z,20.67
2018-02-21T02:07:11.125Z,21.07
2018-02-21T02:10:34.395Z,20.63
2018-02-21T02:13:57.694Z,20.10
2018-02-21T02:17:21.032Z,19.33
2018-02-21T02:20:44.351Z,19.93
2018-02-21T02:24:07.685Z,20.67
2018-02-21T02:27:31.808Z,19.63
2018-02-21T02:30:55.141Z,20.03
2018-02-21T02:34:19.269Z,21.10
2018-02-21T02:37:42.538Z,20.00
2018-02-21T02:41:06.671Z,19.00
2018-02-21T02:44:29.992Z,20.47
2018-02-21T02:47:53.259Z,21.40
2018-02-21T02:51:16.532Z,22.27
2018-02-21T02:54:40.664Z,22.80
2018-02-21T02:58:04.036Z,19.87
2018-02-21T03:01:27.354Z,21.97
2018-02-21T03:04:50.724Z,21.00
2018-02-21T03:08:14.004Z,21.17
2018-02-21T03:11:38.078Z,22.07
2018-02-21T03:15:01.348Z,20.67
2018-02-21T03:18:25.384Z,22.03
2018-02-21T03:21:48.702Z,20.33
2018-02-21T03:25:11.989Z,21.63
2018-02-21T03:28:36.078Z,23.03
2018-02-21T03:32:00.119Z,21.87
2018-02-21T03:35:23.393Z,19.37
2018-02-21T03:38:46.729Z,21.13
2018-02-21T03:42:10.012Z,19.27
2018-02-21T03:45:34.034Z,21.17
2018-02-21T03:48:58.133Z,21.27
2018-02-21T03:52:22.163Z,20.57
2018-02-21T03:55:46.201Z,21.63
2018-02-21T03:59:10.297Z,21.40
2018-02-21T04:02:34.416Z,22.07
2018-02-21T04:05:57.723Z,23.43
2018-02-21T04:09:20.990Z,23.43
2018-02-21T04:12:44.270Z,24.57
2018-02-21T04:16:07.551Z,26.17
2018-02-21T04:19:31.591Z,24.97
2018-02-21T04:22:55.621Z,25.77
2018-02-21T04:26:19.751Z,24.73
2018-02-21T04:29:43.035Z,20.87
2018-02-21T04:33:07.161Z,23.47
2018-02-21T04:36:30.515Z,22.17
2018-02-21T04:39:53.847Z,21.67
2018-02-21T04:43:17.116Z,20.93
2018-02-21T04:46:41.168Z,20.60
2018-02-21T04:50:05.206Z,20.63
2018-02-21T04:53:29.326Z,19.33
2018-02-21T04:56:55.993Z,21.10
2018-02-21T05:00:23.344Z,18.70
2018-02-21T05:03:47.428Z,20.67
2018-02-21T05:07:10.796Z,19.63
2018-02-21T05:10:34.068Z,20.73
2018-02-21T05:13:58.200Z,16.83
2018-02-21T05:17:21.519Z,19.03
2018-02-21T05:20:44.839Z,19.77
2018-02-21T05:24:08.216Z,18.37
2018-02-21T05:27:32.341Z,19.40
2018-02-21T05:30:55.672Z,19.40
2018-02-21T05:34:19.759Z,20.23
2018-02-21T05:37:43.889Z,19.37
2018-02-21T05:41:07.200Z,20.07
2018-02-21T05:44:30.578Z,21.03
2018-02-21T05:47:53.964Z,19.57
2018-02-21T05:51:18.068Z,18.90
2018-02-21T05:54:41.337Z,19.57
2018-02-21T05:58:04.721Z,18.53
2018-02-21T06:01:27.993Z,18.83
2018-02-21T06:04:51.426Z,18.00
2018-02-21T06:08:15.500Z,17.70
2018-02-21T06:11:38.871Z,16.83
2018-02-21T06:15:02.242Z,16.57
2018-02-21T06:18:25.609Z,17.97
2018-02-21T06:21:48.891Z,16.63
2018-02-21T06:25:12.981Z,19.07
2018-02-21T06:28:37.070Z,18.00
2018-02-21T06:32:01.153Z,18.70
2018-02-21T06:35:25.334Z,18.40
2018-02-21T06:38:49.436Z,16.37
2018-02-21T06:42:13.477Z,17.57
2018-02-21T06:45:37.854Z,19.70
2018-02-21T06:49:02.166Z,19.00
2018-02-21T06:52:26.408Z,18.43
2018-02-21T06:55:49.849Z,19.10
2018-02-21T06:59:13.216Z,19.23
2018-02-21T07:02:36.598Z,17.50
2018-02-21T07:05:59.923Z,20.13
2018-02-21T07:09:24.253Z,19.43
2018-02-21T07:12:47.468Z,19.17
2018-02-21T07:16:10.914Z,19.00
2018-02-21T07:19:35.076Z,20.10
2018-02-21T07:22:58.472Z,20.10
2018-02-21T07:26:22.767Z,21.03
2018-02-21T07:29:46.244Z,21.03
2018-02-21T07:33:09.592Z,21.20
2018-02-21T07:36:33.682Z,21.60
2018-02-21T07:39:57.871Z,21.77
2018-02-21T07:43:21.965Z,22.80
2018-02-21T07:46:46.094Z,23.37
2018-02-21T07:50:10.148Z,21.97
2018-02-21T07:53:34.325Z,22.63
2018-02-21T07:56:58.410Z,21.77
2018-02-21T08:00:22.472Z,22.10
2018-02-21T08:03:45.906Z,21.10
2018-02-21T08:07:09.210Z,22.67
2018-02-21T08:10:32.516Z,21.67
2018-02-21T08:13:55.831Z,22.63
2018-02-21T08:17:19.934Z,22.30
2018-02-21T08:20:43.278Z,22.47
2018-02-21T08:24:06.568Z,22.63
2018-02-21T08:27:29.903Z,21.97
2018-02-21T08:30:53.945Z,23.63
2018-02-21T08:34:19.119Z,24.30
2018-02-21T08:37:43.212Z,23.43
2018-02-21T08:41:07.327Z,22.70
2018-02-21T08:44:30.681Z,22.03
2018-02-21T08:47:54.020Z,20.43
2018-02-21T08:51:18.084Z,22.53
2018-02-21T08:54:41.478Z,23.50
2018-02-21T08:58:04.775Z,23.00
2018-02-21T09:01:28.096Z,23.47
2018-02-21T09:04:51.374Z,23.43
2018-02-21T09:08:14.648Z,21.10
2018-02-21T09:11:37.948Z,22.40
2018-02-21T09:15:01.285Z,23.20
2018-02-21T09:18:24.556Z,22.77
2018-02-21T09:21:47.914Z,22.40
2018-02-21T09:25:12.769Z,22.70
2018-02-21T09:28:36.057Z,22.10
2018-02-21T09:32:00.121Z,21.77
2018-02-21T09:35:23.436Z,21.43
2018-02-21T09:38:46.749Z,21.67
2018-02-21T09:42:10.774Z,20.37
2018-02-21T09:45:34.882Z,21.00
2018-02-21T09:48:58.143Z,20.87
2018-02-21T09:52:21.440Z,22.33
2018-02-21T09:55:45.482Z,22.30
2018-02-21T09:59:09.522Z,21.77
2018-02-21T10:02:33.578Z,21.17
2018-02-21T10:05:56.920Z,21.73
2018-02-21T10:09:21.013Z,21.17
2018-02-21T10:12:45.058Z,22.50
2018-02-21T10:16:09.183Z,21.00
2018-02-21T10:19:33.262Z,21.60
2018-02-21T10:22:56.528Z,21.57
2018-02-21T10:26:19.902Z,19.47
2018-02-21T10:29:43.166Z,22.00
2018-02-21T10:33:06.939Z,20.20
2018-02-21T10:36:30.265Z,21.10
2018-02-21T10:39:53.985Z,20.37
2018-02-21T10:43:18.751Z,18.77
2018-02-21T10:46:43.063Z,21.43
2018-02-21T10:50:07.291Z,19.83
2018-02-21T10:53:31.581Z,20.13
2018-02-21T10:56:55.803Z,19.53
2018-02-21T11:00:24.775Z,18.97
2018-02-21T11:03:48.882Z,20.17
2018-02-21T11:07:12.182Z,18.30
2018-02-21T11:10:36.345Z,19.17
2018-02-21T11:13:59.853Z,19.90
2018-02-21T11:17:23.137Z,18.67
2018-02-21T11:20:47.269Z,18.33
2018-02-21T11:24:10.542Z,18.37
2018-02-21T11:27:33.879Z,18.73
2018-02-21T11:30:57.245Z,20.53
2018-02-21T11:34:20.511Z,19.13
2018-02-21T11:37:44.600Z,18.77
2018-02-21T11:41:07.868Z,19.27
2018-02-21T11:44:31.180Z,19.00
2018-02-21T11:47:54.447Z,19.17
2018-02-21T11:51:17.723Z,18.77
2018-02-21T11:54:41.752Z,18.90
2018-02-21T11:58:05.025Z,18.33
2018-02-21T12:01:28.288Z,18.73
2018-02-21T12:04:51.648Z,17.13
2018-02-21T12:08:15.046Z,16.90
2018-02-21T12:11:39.144Z,17.60
2018-02-21T12:15:03.260Z,17.63
2018-02-21T12:18:26.540Z,17.20
2018-02-21T12:21:50.670Z,15.50
2018-02-21T12:25:14.038Z,16.33
2018-02-21T12:28:37.400Z,13.87
2018-02-21T12:32:01.664Z,15.00
2018-02-21T12:35:25.779Z,16.87
2018-02-21T12:38:54.637Z,17.13
2018-02-21T12:42:18.004Z,15.40
2018-02-21T12:45:41.290Z,15.87
2018-02-21T12:49:05.318Z,17.23
2018-02-21T12:52:29.449Z,16.40
2018-02-21T12:55:53.485Z,17.90
2018-02-21T12:59:16.996Z,17.37
2018-02-21T13:02:40.799Z,19.10
2018-02-21T13:06:04.930Z,19.30
2018-02-21T13:09:28.968Z,18.53
2018-02-21T13:12:53.006Z,20.07
2018-02-21T13:16:17.048Z,17.87
2018-02-21T13:19:41.169Z,19.97
2018-02-21T13:23:04.455Z,19.23
2018-02-21T13:26:28.490Z,18.90
2018-02-21T13:29:52.614Z,20.00
2018-02-21T13:33:15.891Z,18.93
2018-02-21T13:36:39.949Z,20.10
2018-02-21T13:40:03.224Z,19.13
2018-02-21T13:43:26.504Z,19.87
2018-02-21T13:46:49.803Z,18.27
2018-02-21T13:50:13.088Z,17.40
2018-02-21T13:53:36.356Z,19.63
2018-02-21T13:56:59.729Z,19.03
2018-02-21T14:00:23.047Z,18.93
2018-02-21T14:03:46.364Z,18.47
2018-02-21T14:07:09.683Z,19.07
2018-02-21T14:10:33.063Z,20.23
2018-02-21T14:13:57.101Z,17.03
2018-02-21T14:17:21.216Z,22.50
2018-02-21T14:20:44.546Z,22.47
2018-02-21T14:24:07.835Z,21.30
2018-02-21T14:27:31.945Z,22.13
2018-02-21T14:30:55.217Z,22.90
2018-02-21T14:34:18.609Z,22.60
2018-02-21T14:37:43.931Z,22.57
2018-02-21T14:41:07.191Z,24.77
2018-02-21T14:44:33.673Z,22.73
2018-02-21T14:47:58.994Z,25.40
2018-02-21T14:51:23.149Z,26.20
2018-02-21T14:54:48.240Z,24.73
2018-02-21T14:58:12.366Z,24.43
2018-02-21T15:01:35.655Z,24.23
2018-02-21T15:04:59.937Z,24.73
2018-02-21T15:08:24.992Z,25.53
2018-02-21T15:11:48.350Z,24.93
2018-02-21T15:15:11.632Z,24.13
2018-02-21T15:18:35.009Z,21.40
2018-02-21T15:21:59.067Z,24.50
2018-02-21T15:25:22.388Z,25.90
2018-02-21T15:28:45.663Z,25.20
2018-02-21T15:32:08.994Z,26.57
2018-02-21T15:35:32.249Z,24.80
2018-02-21T15:38:55.580Z,26.80
2018-02-21T15:42:18.866Z,27.33
2018-02-21T15:45:42.133Z,26.90
2018-02-21T15:49:06.183Z,27.20
2018-02-21T15:52:29.531Z,26.63
2018-02-21T15:55:53.608Z,27.90
2018-02-21T15:59:16.870Z,27.20
2018-02-21T16:02:40.193Z,28.00
2018-02-21T16:06:03.511Z,26.97
2018-02-21T16:09:26.755Z,26.90
2018-02-21T16:12:50.101Z,25.73
2018-02-21T16:16:14.141Z,27.43
2018-02-21T16:19:38.182Z,27.03
2018-02-21T16:23:02.213Z,26.70
2018-02-21T16:26:26.339Z,28.07
2018-02-21T16:29:49.615Z,29.40
2018-02-21T16:33:12.893Z,27.47
2018-02-21T16:36:37.019Z,29.03
2018-02-21T16:40:00.336Z,27.00
2018-02-21T16:43:23.613Z,28.37
2018-02-21T16:46:47.743Z,27.40
2018-02-21T16:50:11.013Z,26.97
2018-02-21T16:53:35.149Z,28.20
2018-02-21T16:56:58.429Z,26.87
2018-02-21T17:00:22.482Z,28.53
2018-02-21T17:03:45.755Z,28.50
2018-02-21T17:07:09.142Z,28.53
2018-02-21T17:10:32.425Z,29.60
2018-02-21T17:13:56.550Z,29.37
2018-02-21T17:17:19.826Z,29.77
2018-02-21T17:20:44.920Z,29.07
2018-02-21T17:24:08.300Z,28.73
2018-02-21T17:27:31.617Z,29.37
2018-02-21T17:30:55.759Z,28.13
2018-02-21T17:34:19.075Z,27.67
2018-02-21T17:37:42.354Z,29.13
2018-02-21T17:41:12.051Z,29.47
2018-02-21T17:44:35.459Z,27.03
2018-02-21T17:47:58.703Z,27.83
2018-02-21T17:51:22.072Z,30.30
2018-02-21T17:54:45.345Z,29.63
2018-02-21T17:58:09.382Z,29.30
2018-02-21T18:01:33.419Z,29.43
2018-02-21T18:04:57.447Z,27.40
2018-02-21T18:08:21.583Z,28.77
2018-02-21T18:11:44.837Z,30.17
2018-02-21T18:15:08.113Z,28.97
2018-02-21T18:18:31.391Z,29.03
2018-02-21T18:21:55.481Z,29.30
2018-02-21T18:25:19.521Z,28.03
2018-02-21T18:28:43.604Z,29.17
2018-02-21T18:32:07.671Z,27.03
2018-02-21T18:43:26.409Z,27.93
2018-02-21T18:46:49.829Z,29.07
2018-02-21T18:50:13.135Z,28.50
2018-02-21T18:53:36.444Z,27.63
2018-02-21T18:56:59.849Z,29.47
2018-02-21T19:00:23.922Z,30.10
2018-02-21T19:03:47.207Z,27.47
2018-02-21T19:07:11.283Z,29.03
2018-02-21T19:10:35.614Z,27.33
2018-02-21T19:13:58.917Z,28.77
2018-02-21T19:17:22.174Z,27.57
2018-02-21T19:20:46.449Z,29.97
2018-02-21T19:24:10.584Z,28.00
2018-02-21T19:27:33.952Z,27.67
2018-02-21T19:30:57.227Z,29.67
2018-02-21T19:34:21.413Z,30.40
2018-02-21T19:37:45.475Z,29.83
2018-02-21T19:41:08.739Z,29.07
2018-02-21T19:44:33.327Z,29.33
2018-02-21T19:47:57.485Z,31.07
2018-02-21T19:51:20.801Z,30.20
2018-02-21T19:54:44.111Z,31.23
2018-02-21T19:58:07.474Z,31.93
2018-02-21T20:01:31.602Z,32.43
2018-02-21T20:04:54.973Z,31.30
2018-02-21T20:08:19.112Z,31.70
2018-02-21T20:11:42.478Z,30.07
2018-02-21T20:15:06.562Z,31.40
2018-02-21T20:18:29.937Z,30.40
2018-02-21T20:21:53.259Z,31.50
2018-02-21T20:25:16.565Z,29.87
2018-02-21T20:28:40.298Z,29.67
2018-02-21T20:32:03.595Z,30.83
2018-02-21T20:35:26.921Z,30.97
2018-02-21T20:38:50.235Z,32.43
2018-02-21T20:42:13.521Z,31.17
2018-02-21T20:45:36.832Z,29.53
2018-02-21T20:49:00.219Z,31.63
2018-02-21T20:52:23.518Z,33.83
2018-02-21T20:55:46.834Z,30.77
2018-02-21T20:59:10.146Z,32.43
2018-02-21T21:02:34.288Z,34.00
2018-02-21T21:05:57.632Z,34.70
2018-02-21T21:09:20.946Z,32.83
2018-02-21T21:12:44.320Z,33.60
2018-02-21T21:16:08.461Z,33.03
2018-02-21T21:19:31.774Z,31.80
2018-02-21T21:22:55.146Z,32.13
2018-02-21T21:26:18.431Z,31.57
2018-02-21T21:29:42.506Z,31.47
2018-02-21T21:33:05.800Z,32.20
2018-02-21T21:36:29.067Z,31.20
2018-02-21T21:39:52.411Z,29.23
2018-02-21T21:43:15.785Z,32.03
2018-02-21T21:46:39.829Z,31.43
2018-02-21T21:50:04.015Z,32.10
2018-02-21T21:53:28.027Z,29.30
2018-02-21T21:56:51.291Z,30.73
2018-02-21T22:00:14.626Z,28.93
2018-02-21T22:03:37.933Z,31.83
2018-02-21T22:07:01.240Z,31.73
2018-02-21T22:10:24.555Z,28.93
2018-02-21T22:13:47.865Z,30.13
2018-02-21T22:17:11.900Z,29.73
2018-02-21T22:20:36.120Z,31.33
2018-02-21T22:23:59.501Z,32.03
2018-02-21T22:27:22.796Z,30.10
2018-02-21T22:30:46.061Z,30.47
2018-02-21T22:34:09.337Z,31.97
2018-02-21T22:37:32.721Z,33.43
2018-02-21T22:40:56.089Z,31.43
2018-02-21T22:44:19.383Z,31.73
2018-02-21T22:47:43.483Z,30.27
2018-02-21T22:51:06.816Z,28.33
2018-02-21T22:54:30.116Z,29.00
2018-02-21T22:57:53.455Z,27.93
2018-02-21T23:01:16.788Z,28.87
2018-02-21T23:04:40.872Z,27.93
2018-02-21T23:08:05.075Z,23.53
2018-02-21T23:11:29.122Z,27.27
2018-02-21T23:14:52.430Z,27.77
2018-02-21T23:18:16.521Z,25.83
2018-02-21T23:21:39.826Z,27.63
2018-02-21T23:25:04.223Z,26.77
2018-02-21T23:28:27.547Z,25.77
2018-02-21T23:31:50.856Z,25.63
2018-02-21T23:35:14.983Z,25.80
2018-02-21T23:38:38.259Z,26.07
2018-02-21T23:42:04.730Z,27.83
2018-02-21T23:45:28.113Z,28.20
2018-02-21T23:56:51.548Z,24.70
